sensor_id;sensor_type;location;lat;lon;timestamp;temperature;humidity
20208;DHT22;10263;48.716;8.760;2022-12-10T00:01:25;1.40;99.90
20208;DHT22;10263;48.716;8.760;2022-12-10T00:06:21;1.40;99.90
20208;DHT22;10263;48.716;8.760;2022-12-10T00:11:17;1.30;99.90
20208;DHT22;10263;48.716;8.760;2022-12-10T00:13:46;1.40;99.90
20208;DHT22;10263;48.716;8.760;2022-12-10T00:16:16;1.40;99.90
20208;DHT22;10263;48.716;8.760;2022-12-10T00:21:12;1.40;99.90
20208;DHT22;10263;48.716;8.760;2022-12-10T00:26:11;1.40;99.90
20208;DHT22;10263;48.716;8.760;2022-12-10T00:28:38;1.50;99.90
20208;DHT22;10263;48.716;8.760;2022-12-10T00:31:08;1.40;99.90
20208;DHT22;10263;48.716;8.760;2022-12-10T00:33:37;1.40;99.90
20208;DHT22;10263;48.716;8.760;2022-12-10T00:36:06;1.50;99.90
20208;DHT22;10263;48.716;8.760;2022-12-10T00:38:34;1.50;99.90
20208;DHT22;10263;48.716;8.760;2022-12-10T00:41:02;1.50;99.90
20208;DHT22;10263;48.716;8.760;2022-12-10T00:45:57;1.50;99.90
20208;DHT22;10263;48.716;8.760;2022-12-10T00:48:24;1.50;99.90
20208;DHT22;10263;48.716;8.760;2022-12-10T00:50:57;1.40;99.90
20208;DHT22;10263;48.716;8.760;2022-12-10T00:53:25;1.50;99.90
20208;DHT22;10263;48.716;8.760;2022-12-10T00:55:52;1.50;99.90
20208;DHT22;10263;48.716;8.760;2022-12-10T00:58:20;1.50;99.90
20208;DHT22;10263;48.716;8.760;2022-12-10T01:00:47;1.50;99.90
20208;DHT22;10263;48.716;8.760;2022-12-10T01:03:15;1.40;99.90
20208;DHT22;10263;48.716;8.760;2022-12-10T01:08:14;1.40;99.90
20208;DHT22;10263;48.716;8.760;2022-12-10T01:15:37;1.40;99.90
20208;DHT22;10263;48.716;8.760;2022-12-10T01:20:35;1.40;99.90
20208;DHT22;10263;48.716;8.760;2022-12-10T01:25:32;1.40;99.90
20208;DHT22;10263;48.716;8.760;2022-12-10T01:42:45;1.30;99.90
20208;DHT22;10263;48.716;8.760;2022-12-10T01:50:09;1.30;99.90
20208;DHT22;10263;48.716;8.760;2022-12-10T01:52:37;1.40;99.90
20208;DHT22;10263;48.716;8.760;2022-12-10T01:55:35;1.40;99.90
20208;DHT22;10263;48.716;8.760;2022-12-10T01:57:57;1.40;99.90
20208;DHT22;10263;48.716;8.760;2022-12-10T02:00:24;1.30;99.90
20208;DHT22;10263;48.716;8.760;2022-12-10T02:02:55;1.40;99.90
20208;DHT22;10263;48.716;8.760;2022-12-10T02:05:26;1.40;99.90
20208;DHT22;10263;48.716;8.760;2022-12-10T02:08:02;1.40;99.90
20208;DHT22;10263;48.716;8.760;2022-12-10T02:10:41;1.30;99.90
20208;DHT22;10263;48.716;8.760;2022-12-10T02:13:16;1.30;99.90
20208;DHT22;10263;48.716;8.760;2022-12-10T02:15:49;1.30;99.90
20208;DHT22;10263;48.716;8.760;2022-12-10T02:18:20;1.30;99.90
20208;DHT22;10263;48.716;8.760;2022-12-10T02:20:50;1.20;99.90
20208;DHT22;10263;48.716;8.760;2022-12-10T02:23:23;1.30;99.90
20208;DHT22;10263;48.716;8.760;2022-12-10T02:26:01;1.20;99.90
20208;DHT22;10263;48.716;8.760;2022-12-10T02:28:37;2.00;99.90
20208;DHT22;10263;48.716;8.760;2022-12-10T02:31:11;1.20;99.90
20208;DHT22;10263;48.716;8.760;2022-12-10T02:33:42;1.20;99.90
20208;DHT22;10263;48.716;8.760;2022-12-10T02:36:11;1.20;99.90
20208;DHT22;10263;48.716;8.760;2022-12-10T02:38:41;1.20;99.90
20208;DHT22;10263;48.716;8.760;2022-12-10T02:41:14;1.20;99.90
20208;DHT22;10263;48.716;8.760;2022-12-10T02:43:43;1.20;99.90
20208;DHT22;10263;48.716;8.760;2022-12-10T02:46:13;1.20;99.90
20208;DHT22;10263;48.716;8.760;2022-12-10T02:48:42;1.20;99.90
20208;DHT22;10263;48.716;8.760;2022-12-10T02:53:41;1.20;99.90
20208;DHT22;10263;48.716;8.760;2022-12-10T02:56:14;1.20;99.90
20208;DHT22;10263;48.716;8.760;2022-12-10T02:58:54;1.30;99.90
20208;DHT22;10263;48.716;8.760;2022-12-10T03:01:34;1.20;99.90
20208;DHT22;10263;48.716;8.760;2022-12-10T03:04:08;1.20;99.90
20208;DHT22;10263;48.716;8.760;2022-12-10T03:06:38;1.10;99.90
20208;DHT22;10263;48.716;8.760;2022-12-10T03:09:11;1.20;99.90
20208;DHT22;10263;48.716;8.760;2022-12-10T03:11:41;1.10;99.90
20208;DHT22;10263;48.716;8.760;2022-12-10T03:14:13;1.10;99.90
20208;DHT22;10263;48.716;8.760;2022-12-10T03:16:46;1.20;99.90
20208;DHT22;10263;48.716;8.760;2022-12-10T03:19:19;1.10;99.90
20208;DHT22;10263;48.716;8.760;2022-12-10T03:21:49;1.10;99.90
20208;DHT22;10263;48.716;8.760;2022-12-10T03:24:17;1.10;99.90
20208;DHT22;10263;48.716;8.760;2022-12-10T03:26:47;1.20;99.90
20208;DHT22;10263;48.716;8.760;2022-12-10T03:29:17;1.10;99.90
20208;DHT22;10263;48.716;8.760;2022-12-10T03:31:47;1.10;99.90
20208;DHT22;10263;48.716;8.760;2022-12-10T03:34:15;1.10;99.90
20208;DHT22;10263;48.716;8.760;2022-12-10T03:36:42;1.10;99.90
20208;DHT22;10263;48.716;8.760;2022-12-10T03:39:10;1.10;99.90
20208;DHT22;10263;48.716;8.760;2022-12-10T03:46:32;1.10;99.90
20208;DHT22;10263;48.716;8.760;2022-12-10T03:49:02;1.20;99.90
20208;DHT22;10263;48.716;8.760;2022-12-10T03:53:56;1.20;99.90
20208;DHT22;10263;48.716;8.760;2022-12-10T04:03:45;1.30;99.90
20208;DHT22;10263;48.716;8.760;2022-12-10T04:06:16;1.30;99.90
20208;DHT22;10263;48.716;8.760;2022-12-10T04:08:44;1.30;99.90
20208;DHT22;10263;48.716;8.760;2022-12-10T04:11:12;1.30;99.90
20208;DHT22;10263;48.716;8.760;2022-12-10T04:13:40;1.30;99.90
20208;DHT22;10263;48.716;8.760;2022-12-10T04:16:25;1.30;99.90
20208;DHT22;10263;48.716;8.760;2022-12-10T04:18:57;1.20;99.90
20208;DHT22;10263;48.716;8.760;2022-12-10T04:21:26;1.30;99.90
20208;DHT22;10263;48.716;8.760;2022-12-10T04:24:13;1.30;99.90
20208;DHT22;10263;48.716;8.760;2022-12-10T04:27:00;1.30;99.90
20208;DHT22;10263;48.716;8.760;2022-12-10T04:29:30;1.20;99.90
20208;DHT22;10263;48.716;8.760;2022-12-10T04:31:57;1.30;99.90
20208;DHT22;10263;48.716;8.760;2022-12-10T04:36:53;1.20;99.90
20208;DHT22;10263;48.716;8.760;2022-12-10T04:41:48;1.20;99.90
20208;DHT22;10263;48.716;8.760;2022-12-10T04:44:16;1.30;99.90
20208;DHT22;10263;48.716;8.760;2022-12-10T04:46:43;1.30;99.90
20208;DHT22;10263;48.716;8.760;2022-12-10T04:51:37;1.30;99.90
20208;DHT22;10263;48.716;8.760;2022-12-10T04:54:06;1.30;99.90
20208;DHT22;10263;48.716;8.760;2022-12-10T05:01:28;1.40;99.90
20208;DHT22;10263;48.716;8.760;2022-12-10T05:03:58;1.30;99.90
20208;DHT22;10263;48.716;8.760;2022-12-10T05:08:53;1.40;99.90
20208;DHT22;10263;48.716;8.760;2022-12-10T05:11:23;1.30;99.90
20208;DHT22;10263;48.716;8.760;2022-12-10T05:13:51;1.40;99.90
20208;DHT22;10263;48.716;8.760;2022-12-10T05:16:20;1.40;99.90
20208;DHT22;10263;48.716;8.760;2022-12-10T05:18:48;1.30;99.90
20208;DHT22;10263;48.716;8.760;2022-12-10T05:21:17;1.40;99.90
20208;DHT22;10263;48.716;8.760;2022-12-10T05:23:47;1.30;99.90
20208;DHT22;10263;48.716;8.760;2022-12-10T05:26:16;1.30;99.90
20208;DHT22;10263;48.716;8.760;2022-12-10T05:28:46;1.30;99.90
20208;DHT22;10263;48.716;8.760;2022-12-10T05:31:14;1.30;99.90
20208;DHT22;10263;48.716;8.760;2022-12-10T05:36:10;1.30;99.90
20208;DHT22;10263;48.716;8.760;2022-12-10T05:38:39;1.30;99.90
20208;DHT22;10263;48.716;8.760;2022-12-10T05:41:09;1.40;99.90
20208;DHT22;10263;48.716;8.760;2022-12-10T05:46:07;1.30;99.90
20208;DHT22;10263;48.716;8.760;2022-12-10T05:51:03;1.10;99.90
20208;DHT22;10263;48.716;8.760;2022-12-10T05:56:01;1.10;99.90
20208;DHT22;10263;48.716;8.760;2022-12-10T06:00:55;1.20;99.90
20208;DHT22;10263;48.716;8.760;2022-12-10T06:03:25;1.20;99.90
20208;DHT22;10263;48.716;8.760;2022-12-10T06:10:47;1.10;99.90
20208;DHT22;10263;48.716;8.760;2022-12-10T06:15:42;1.00;99.90
20208;DHT22;10263;48.716;8.760;2022-12-10T06:20:39;1.00;99.90
20208;DHT22;10263;48.716;8.760;2022-12-10T06:23:06;1.00;99.90
20208;DHT22;10263;48.716;8.760;2022-12-10T06:35:22;0.80;99.90
20208;DHT22;10263;48.716;8.760;2022-12-10T06:37:50;0.90;99.90
20208;DHT22;10263;48.716;8.760;2022-12-10T06:50:06;0.70;99.90
20208;DHT22;10263;48.716;8.760;2022-12-10T06:55:02;0.80;99.90
20208;DHT22;10263;48.716;8.760;2022-12-10T06:57:29;0.80;99.90
20208;DHT22;10263;48.716;8.760;2022-12-10T07:02:23;0.80;99.90
20208;DHT22;10263;48.716;8.760;2022-12-10T07:04:50;0.90;99.90
20208;DHT22;10263;48.716;8.760;2022-12-10T07:12:12;0.80;99.90
20208;DHT22;10263;48.716;8.760;2022-12-10T07:29:24;0.80;99.90
20208;DHT22;10263;48.716;8.760;2022-12-10T07:34:20;0.80;99.90
20208;DHT22;10263;48.716;8.760;2022-12-10T07:39:14;0.80;99.90
20208;DHT22;10263;48.716;8.760;2022-12-10T07:44:11;0.80;99.90
20208;DHT22;10263;48.716;8.760;2022-12-10T07:46:40;0.80;99.90
20208;DHT22;10263;48.716;8.760;2022-12-10T07:51:34;0.80;99.90
20208;DHT22;10263;48.716;8.760;2022-12-10T07:56:28;0.80;99.90
20208;DHT22;10263;48.716;8.760;2022-12-10T08:01:24;0.80;99.90
20208;DHT22;10263;48.716;8.760;2022-12-10T08:03:54;0.90;99.90
20208;DHT22;10263;48.716;8.760;2022-12-10T08:06:23;0.90;99.90
20208;DHT22;10263;48.716;8.760;2022-12-10T08:08:50;0.90;99.90
20208;DHT22;10263;48.716;8.760;2022-12-10T08:11:19;0.90;99.90
20208;DHT22;10263;48.716;8.760;2022-12-10T08:13:46;1.00;99.90
20208;DHT22;10263;48.716;8.760;2022-12-10T08:16:16;1.00;99.90
20208;DHT22;10263;48.716;8.760;2022-12-10T08:18:44;0.90;99.90
20208;DHT22;10263;48.716;8.760;2022-12-10T08:21:13;0.90;99.90
20208;DHT22;10263;48.716;8.760;2022-12-10T08:23:41;1.00;99.90
20208;DHT22;10263;48.716;8.760;2022-12-10T08:26:11;1.00;99.90
20208;DHT22;10263;48.716;8.760;2022-12-10T08:31:07;1.00;99.90
20208;DHT22;10263;48.716;8.760;2022-12-10T08:36:06;0.90;99.90
20208;DHT22;10263;48.716;8.760;2022-12-10T08:38:35;1.00;99.90
20208;DHT22;10263;48.716;8.760;2022-12-10T08:41:06;1.00;99.90
20208;DHT22;10263;48.716;8.760;2022-12-10T08:50:55;1.00;99.90
20208;DHT22;10263;48.716;8.760;2022-12-10T08:55:52;1.00;99.90
20208;DHT22;10263;48.716;8.760;2022-12-10T09:00:46;1.10;99.90
20208;DHT22;10263;48.716;8.760;2022-12-10T09:08:08;1.10;99.90
20208;DHT22;10263;48.716;8.760;2022-12-10T09:10:36;1.20;99.90
20208;DHT22;10263;48.716;8.760;2022-12-10T09:13:04;1.20;99.90
20208;DHT22;10263;48.716;8.760;2022-12-10T09:27:47;1.30;99.90
20208;DHT22;10263;48.716;8.760;2022-12-10T09:30:16;1.30;99.90
20208;DHT22;10263;48.716;8.760;2022-12-10T09:35:10;1.30;99.90
20208;DHT22;10263;48.716;8.760;2022-12-10T09:40:05;1.30;99.90
20208;DHT22;10263;48.716;8.760;2022-12-10T09:42:40;1.30;99.90
20208;DHT22;10263;48.716;8.760;2022-12-10T09:45:17;1.30;99.90
20208;DHT22;10263;48.716;8.760;2022-12-10T09:47:51;1.40;99.90
20208;DHT22;10263;48.716;8.760;2022-12-10T09:50:23;1.30;99.90
20208;DHT22;10263;48.716;8.760;2022-12-10T09:55:26;1.30;99.90
20208;DHT22;10263;48.716;8.760;2022-12-10T10:00:29;1.30;99.90
20208;DHT22;10263;48.716;8.760;2022-12-10T10:02:58;1.30;99.90
20208;DHT22;10263;48.716;8.760;2022-12-10T10:05:27;1.30;99.90
20208;DHT22;10263;48.716;8.760;2022-12-10T10:07:59;1.30;99.90
20208;DHT22;10263;48.716;8.760;2022-12-10T10:10:30;1.30;99.90
20208;DHT22;10263;48.716;8.760;2022-12-10T10:13:01;1.30;99.90
20208;DHT22;10263;48.716;8.760;2022-12-10T10:15:35;1.30;99.90
20208;DHT22;10263;48.716;8.760;2022-12-10T10:18:04;1.30;99.90
20208;DHT22;10263;48.716;8.760;2022-12-10T10:20:35;1.30;99.90
20208;DHT22;10263;48.716;8.760;2022-12-10T10:32:54;1.20;99.90
20208;DHT22;10263;48.716;8.760;2022-12-10T10:35:28;1.40;99.90
20208;DHT22;10263;48.716;8.760;2022-12-10T10:38:01;1.40;99.90
20208;DHT22;10263;48.716;8.760;2022-12-10T10:40:31;1.50;99.90
20208;DHT22;10263;48.716;8.760;2022-12-10T10:42:59;1.50;99.90
20208;DHT22;10263;48.716;8.760;2022-12-10T10:45:33;1.50;99.90
20208;DHT22;10263;48.716;8.760;2022-12-10T10:48:08;1.60;99.90
20208;DHT22;10263;48.716;8.760;2022-12-10T10:50:39;1.60;99.90
20208;DHT22;10263;48.716;8.760;2022-12-10T10:53:25;1.70;99.90
20208;DHT22;10263;48.716;8.760;2022-12-10T10:55:54;1.60;99.90
20208;DHT22;10263;48.716;8.760;2022-12-10T10:58:23;1.70;99.90
20208;DHT22;10263;48.716;8.760;2022-12-10T11:00:59;1.70;99.90
20208;DHT22;10263;48.716;8.760;2022-12-10T11:03:29;1.70;99.90
20208;DHT22;10263;48.716;8.760;2022-12-10T11:05:58;1.80;99.90
20208;DHT22;10263;48.716;8.760;2022-12-10T11:08:28;1.80;99.90
20208;DHT22;10263;48.716;8.760;2022-12-10T11:10:58;1.70;99.90
20208;DHT22;10263;48.716;8.760;2022-12-10T11:13:29;1.70;99.90
20208;DHT22;10263;48.716;8.760;2022-12-10T11:16:00;1.80;99.90
20208;DHT22;10263;48.716;8.760;2022-12-10T11:18:31;1.80;99.90
20208;DHT22;10263;48.716;8.760;2022-12-10T11:21:05;1.90;99.90
20208;DHT22;10263;48.716;8.760;2022-12-10T11:23:37;1.90;99.90
20208;DHT22;10263;48.716;8.760;2022-12-10T11:26:15;1.90;99.90
20208;DHT22;10263;48.716;8.760;2022-12-10T11:28:56;1.90;99.90
20208;DHT22;10263;48.716;8.760;2022-12-10T11:31:45;1.90;99.90
20208;DHT22;10263;48.716;8.760;2022-12-10T11:34:19;1.80;99.90
20208;DHT22;10263;48.716;8.760;2022-12-10T11:36:55;1.70;99.90
20208;DHT22;10263;48.716;8.760;2022-12-10T11:39:42;1.80;99.90
20208;DHT22;10263;48.716;8.760;2022-12-10T11:42:17;1.80;99.90
20208;DHT22;10263;48.716;8.760;2022-12-10T11:44:51;1.90;99.90
20208;DHT22;10263;48.716;8.760;2022-12-10T11:47:33;2.00;99.90
20208;DHT22;10263;48.716;8.760;2022-12-10T11:50:19;2.00;99.90
20208;DHT22;10263;48.716;8.760;2022-12-10T11:52:59;2.10;99.90
20208;DHT22;10263;48.716;8.760;2022-12-10T11:55:36;2.20;99.90
20208;DHT22;10263;48.716;8.760;2022-12-10T11:58:19;2.10;99.90
20208;DHT22;10263;48.716;8.760;2022-12-10T12:00:58;2.10;99.90
20208;DHT22;10263;48.716;8.760;2022-12-10T12:03:37;2.20;99.90
20208;DHT22;10263;48.716;8.760;2022-12-10T12:06:24;2.30;99.90
20208;DHT22;10263;48.716;8.760;2022-12-10T12:08:58;2.30;99.90
20208;DHT22;10263;48.716;8.760;2022-12-10T12:11:42;2.30;99.90
20208;DHT22;10263;48.716;8.760;2022-12-10T12:14:18;2.30;99.90
20208;DHT22;10263;48.716;8.760;2022-12-10T12:16:51;2.20;99.90
20208;DHT22;10263;48.716;8.760;2022-12-10T12:19:27;2.20;99.90
20208;DHT22;10263;48.716;8.760;2022-12-10T12:22:02;2.20;99.90
20208;DHT22;10263;48.716;8.760;2022-12-10T12:24:35;2.20;99.90
20208;DHT22;10263;48.716;8.760;2022-12-10T12:27:11;2.20;99.90
20208;DHT22;10263;48.716;8.760;2022-12-10T12:29:43;2.20;99.90
20208;DHT22;10263;48.716;8.760;2022-12-10T12:32:17;2.20;99.90
20208;DHT22;10263;48.716;8.760;2022-12-10T12:34:49;2.10;99.90
20208;DHT22;10263;48.716;8.760;2022-12-10T12:37:22;2.20;99.90
20208;DHT22;10263;48.716;8.760;2022-12-10T12:39:58;3.80;99.90
20208;DHT22;10263;48.716;8.760;2022-12-10T12:42:30;2.20;99.90
20208;DHT22;10263;48.716;8.760;2022-12-10T12:45:03;2.20;99.90
20208;DHT22;10263;48.716;8.760;2022-12-10T12:47:37;2.10;99.90
20208;DHT22;10263;48.716;8.760;2022-12-10T12:50:15;2.10;99.90
20208;DHT22;10263;48.716;8.760;2022-12-10T12:52:51;2.20;99.90
20208;DHT22;10263;48.716;8.760;2022-12-10T12:55:24;2.10;99.90
20208;DHT22;10263;48.716;8.760;2022-12-10T12:57:57;2.10;99.90
20208;DHT22;10263;48.716;8.760;2022-12-10T13:00:29;2.10;99.90
20208;DHT22;10263;48.716;8.760;2022-12-10T13:03:10;2.10;99.90
20208;DHT22;10263;48.716;8.760;2022-12-10T13:08:32;1.90;99.90
20208;DHT22;10263;48.716;8.760;2022-12-10T13:11:17;2.00;99.90
20208;DHT22;10263;48.716;8.760;2022-12-10T13:14:09;2.00;99.90
20208;DHT22;10263;48.716;8.760;2022-12-10T13:16:58;2.00;99.90
20208;DHT22;10263;48.716;8.760;2022-12-10T13:19:28;2.00;99.90
20208;DHT22;10263;48.716;8.760;2022-12-10T13:22:08;2.10;99.90
20208;DHT22;10263;48.716;8.760;2022-12-10T13:25:09;2.00;99.90
20208;DHT22;10263;48.716;8.760;2022-12-10T13:30:26;2.10;99.90
20208;DHT22;10263;48.716;8.760;2022-12-10T13:33:05;2.20;99.90
20208;DHT22;10263;48.716;8.760;2022-12-10T13:35:43;2.20;99.90
20208;DHT22;10263;48.716;8.760;2022-12-10T13:38:19;2.20;99.90
20208;DHT22;10263;48.716;8.760;2022-12-10T13:41:00;2.10;99.90
20208;DHT22;10263;48.716;8.760;2022-12-10T13:43:52;2.10;99.90
20208;DHT22;10263;48.716;8.760;2022-12-10T13:47:03;2.10;99.90
20208;DHT22;10263;48.716;8.760;2022-12-10T13:49:35;2.00;99.90
20208;DHT22;10263;48.716;8.760;2022-12-10T13:52:15;2.00;99.90
20208;DHT22;10263;48.716;8.760;2022-12-10T13:55:07;2.00;99.90
20208;DHT22;10263;48.716;8.760;2022-12-10T13:57:52;2.00;99.90
20208;DHT22;10263;48.716;8.760;2022-12-10T14:00:31;2.00;99.90
20208;DHT22;10263;48.716;8.760;2022-12-10T14:06:12;1.90;99.90
20208;DHT22;10263;48.716;8.760;2022-12-10T14:08:45;1.80;99.90
20208;DHT22;10263;48.716;8.760;2022-12-10T14:11:20;1.90;99.90
20208;DHT22;10263;48.716;8.760;2022-12-10T14:13:54;1.80;99.90
20208;DHT22;10263;48.716;8.760;2022-12-10T14:16:23;1.80;99.90
20208;DHT22;10263;48.716;8.760;2022-12-10T14:18:55;1.80;99.90
20208;DHT22;10263;48.716;8.760;2022-12-10T14:26:20;1.80;99.90
20208;DHT22;10263;48.716;8.760;2022-12-10T14:28:53;1.70;99.90
20208;DHT22;10263;48.716;8.760;2022-12-10T14:31:24;1.70;99.90
20208;DHT22;10263;48.716;8.760;2022-12-10T14:33:57;1.70;99.90
20208;DHT22;10263;48.716;8.760;2022-12-10T14:36:27;1.80;99.90
20208;DHT22;10263;48.716;8.760;2022-12-10T14:38:55;1.80;99.90
20208;DHT22;10263;48.716;8.760;2022-12-10T14:41:23;1.80;99.90
20208;DHT22;10263;48.716;8.760;2022-12-10T14:43:52;1.70;99.90
20208;DHT22;10263;48.716;8.760;2022-12-10T14:46:23;1.70;99.90
20208;DHT22;10263;48.716;8.760;2022-12-10T14:48:51;1.70;99.90
20208;DHT22;10263;48.716;8.760;2022-12-10T14:51:22;1.60;99.90
20208;DHT22;10263;48.716;8.760;2022-12-10T14:53:50;1.60;99.90
20208;DHT22;10263;48.716;8.760;2022-12-10T14:56:22;1.50;99.90
20208;DHT22;10263;48.716;8.760;2022-12-10T14:58:54;1.50;99.90
20208;DHT22;10263;48.716;8.760;2022-12-10T15:01:28;1.50;99.90
20208;DHT22;10263;48.716;8.760;2022-12-10T15:03:57;1.30;99.90
20208;DHT22;10263;48.716;8.760;2022-12-10T15:08:55;1.40;99.90
20208;DHT22;10263;48.716;8.760;2022-12-10T15:11:23;1.30;99.90
20208;DHT22;10263;48.716;8.760;2022-12-10T15:13:54;1.30;99.90
20208;DHT22;10263;48.716;8.760;2022-12-10T15:16:29;1.30;99.90
20208;DHT22;10263;48.716;8.760;2022-12-10T15:19:07;1.30;99.90
20208;DHT22;10263;48.716;8.760;2022-12-10T15:21:41;1.30;99.90
20208;DHT22;10263;48.716;8.760;2022-12-10T15:24:15;1.20;99.90
20208;DHT22;10263;48.716;8.760;2022-12-10T15:26:43;1.20;99.90
20208;DHT22;10263;48.716;8.760;2022-12-10T15:29:33;1.10;99.90
20208;DHT22;10263;48.716;8.760;2022-12-10T15:32:04;1.00;99.90
20208;DHT22;10263;48.716;8.760;2022-12-10T15:34:37;1.00;99.90
20208;DHT22;10263;48.716;8.760;2022-12-10T15:37:05;1.00;99.90
20208;DHT22;10263;48.716;8.760;2022-12-10T15:39:45;1.00;99.90
20208;DHT22;10263;48.716;8.760;2022-12-10T15:42:29;0.90;99.90
20208;DHT22;10263;48.716;8.760;2022-12-10T15:45:01;0.80;99.90
20208;DHT22;10263;48.716;8.760;2022-12-10T15:52:28;-0.60;99.90
20208;DHT22;10263;48.716;8.760;2022-12-10T15:54:56;0.90;99.90
20208;DHT22;10263;48.716;8.760;2022-12-10T15:57:25;0.90;99.90
20208;DHT22;10263;48.716;8.760;2022-12-10T15:59:53;0.80;99.90
20208;DHT22;10263;48.716;8.760;2022-12-10T16:02:29;0.90;99.90
20208;DHT22;10263;48.716;8.760;2022-12-10T16:09:53;0.70;99.90
20208;DHT22;10263;48.716;8.760;2022-12-10T16:14:49;0.60;99.90
20208;DHT22;10263;48.716;8.760;2022-12-10T16:17:19;0.60;99.90
20208;DHT22;10263;48.716;8.760;2022-12-10T16:19:47;0.60;99.90
20208;DHT22;10263;48.716;8.760;2022-12-10T16:22:14;0.50;99.90
20208;DHT22;10263;48.716;8.760;2022-12-10T16:27:12;0.40;99.90
20208;DHT22;10263;48.716;8.760;2022-12-10T16:32:08;0.50;99.90
20208;DHT22;10263;48.716;8.760;2022-12-10T16:37:04;0.30;99.90
20208;DHT22;10263;48.716;8.760;2022-12-10T16:44:25;0.40;99.90
20208;DHT22;10263;48.716;8.760;2022-12-10T16:54:14;0.40;99.90
20208;DHT22;10263;48.716;8.760;2022-12-10T16:59:08;0.40;99.90
20208;DHT22;10263;48.716;8.760;2022-12-10T17:06:30;0.40;99.90
20208;DHT22;10263;48.716;8.760;2022-12-10T17:11:28;0.40;99.90
20208;DHT22;10263;48.716;8.760;2022-12-10T17:14:20;0.40;99.90
20208;DHT22;10263;48.716;8.760;2022-12-10T17:16:51;0.40;99.90
20208;DHT22;10263;48.716;8.760;2022-12-10T17:19:18;0.40;99.90
20208;DHT22;10263;48.716;8.760;2022-12-10T17:26:44;0.40;99.90
20208;DHT22;10263;48.716;8.760;2022-12-10T17:29:14;0.30;99.90
20208;DHT22;10263;48.716;8.760;2022-12-10T17:31:41;0.40;99.90
20208;DHT22;10263;48.716;8.760;2022-12-10T17:34:10;0.40;99.90
20208;DHT22;10263;48.716;8.760;2022-12-10T17:41:31;0.40;99.90
20208;DHT22;10263;48.716;8.760;2022-12-10T17:44:00;0.40;99.90
20208;DHT22;10263;48.716;8.760;2022-12-10T17:46:27;0.40;99.90
20208;DHT22;10263;48.716;8.760;2022-12-10T17:51:21;0.40;99.90
20208;DHT22;10263;48.716;8.760;2022-12-10T17:56:17;0.50;99.90
20208;DHT22;10263;48.716;8.760;2022-12-10T17:58:45;0.50;99.90
20208;DHT22;10263;48.716;8.760;2022-12-10T18:01:14;0.50;99.90
20208;DHT22;10263;48.716;8.760;2022-12-10T18:03:42;0.50;99.90
20208;DHT22;10263;48.716;8.760;2022-12-10T18:06:13;0.50;99.90
20208;DHT22;10263;48.716;8.760;2022-12-10T18:11:11;0.50;99.90
20208;DHT22;10263;48.716;8.760;2022-12-10T18:16:08;0.50;99.90
20208;DHT22;10263;48.716;8.760;2022-12-10T18:18:37;0.50;99.90
20208;DHT22;10263;48.716;8.760;2022-12-10T18:21:05;0.50;99.90
20208;DHT22;10263;48.716;8.760;2022-12-10T18:26:00;0.50;99.90
20208;DHT22;10263;48.716;8.760;2022-12-10T18:28:50;0.50;99.90
20208;DHT22;10263;48.716;8.760;2022-12-10T18:31:21;0.50;99.90
20208;DHT22;10263;48.716;8.760;2022-12-10T18:33:51;0.50;99.90
20208;DHT22;10263;48.716;8.760;2022-12-10T18:36:20;0.50;99.90
20208;DHT22;10263;48.716;8.760;2022-12-10T18:38:48;0.40;99.90
20208;DHT22;10263;48.716;8.760;2022-12-10T18:41:16;0.40;99.90
20208;DHT22;10263;48.716;8.760;2022-12-10T18:43:43;0.40;99.90
20208;DHT22;10263;48.716;8.760;2022-12-10T18:46:13;0.50;99.90
20208;DHT22;10263;48.716;8.760;2022-12-10T18:51:11;0.40;99.90
20208;DHT22;10263;48.716;8.760;2022-12-10T18:53:38;0.40;99.90
20208;DHT22;10263;48.716;8.760;2022-12-10T18:56:06;0.50;99.90
20208;DHT22;10263;48.716;8.760;2022-12-10T19:08:23;0.40;99.90
20208;DHT22;10263;48.716;8.760;2022-12-10T19:10:50;0.40;99.90
20208;DHT22;10263;48.716;8.760;2022-12-10T19:18:14;0.40;99.90
20208;DHT22;10263;48.716;8.760;2022-12-10T19:20:41;0.40;99.90
20208;DHT22;10263;48.716;8.760;2022-12-10T19:23:08;0.40;99.90
20208;DHT22;10263;48.716;8.760;2022-12-10T19:25:36;0.30;99.90
20208;DHT22;10263;48.716;8.760;2022-12-10T19:28:03;0.40;99.90
20208;DHT22;10263;48.716;8.760;2022-12-10T19:35:25;0.20;99.90
20208;DHT22;10263;48.716;8.760;2022-12-10T19:37:53;0.30;99.90
20208;DHT22;10263;48.716;8.760;2022-12-10T19:40:22;0.20;99.90
20208;DHT22;10263;48.716;8.760;2022-12-10T19:42:51;0.20;99.90
20208;DHT22;10263;48.716;8.760;2022-12-10T19:45:18;0.20;99.90
20208;DHT22;10263;48.716;8.760;2022-12-10T19:47:46;0.20;99.90
20208;DHT22;10263;48.716;8.760;2022-12-10T19:50:16;0.30;99.90
20208;DHT22;10263;48.716;8.760;2022-12-10T19:52:43;0.20;99.90
20208;DHT22;10263;48.716;8.760;2022-12-10T19:55:10;0.80;99.90
20208;DHT22;10263;48.716;8.760;2022-12-10T20:00:11;0.20;99.90
20208;DHT22;10263;48.716;8.760;2022-12-10T20:10:01;0.30;99.90
20208;DHT22;10263;48.716;8.760;2022-12-10T20:17:25;0.20;99.90
20208;DHT22;10263;48.716;8.760;2022-12-10T20:19:52;0.20;99.90
20208;DHT22;10263;48.716;8.760;2022-12-10T20:27:14;-0.10;99.90
20208;DHT22;10263;48.716;8.760;2022-12-10T20:29:42;0.00;99.90
20208;DHT22;10263;48.716;8.760;2022-12-10T20:34:37;-0.10;99.90
20208;DHT22;10263;48.716;8.760;2022-12-10T20:37:04;-0.10;99.90
20208;DHT22;10263;48.716;8.760;2022-12-10T20:39:33;-0.20;99.90
20208;DHT22;10263;48.716;8.760;2022-12-10T20:42:00;-0.20;99.90
20208;DHT22;10263;48.716;8.760;2022-12-10T20:46:56;-0.30;99.90
20208;DHT22;10263;48.716;8.760;2022-12-10T20:49:24;-0.40;99.90
20208;DHT22;10263;48.716;8.760;2022-12-10T20:51:53;-0.50;99.90
20208;DHT22;10263;48.716;8.760;2022-12-10T20:59:15;-0.60;99.90
20208;DHT22;10263;48.716;8.760;2022-12-10T21:04:09;-0.70;99.90
20208;DHT22;10263;48.716;8.760;2022-12-10T21:09:05;-0.70;99.90
20208;DHT22;10263;48.716;8.760;2022-12-10T21:11:32;-0.80;99.90
20208;DHT22;10263;48.716;8.760;2022-12-10T21:13:59;-0.80;99.90
20208;DHT22;10263;48.716;8.760;2022-12-10T21:16:26;-0.80;99.90
20208;DHT22;10263;48.716;8.760;2022-12-10T21:18:54;-0.80;99.90
20208;DHT22;10263;48.716;8.760;2022-12-10T21:21:22;-0.80;99.90
20208;DHT22;10263;48.716;8.760;2022-12-10T21:26:19;-0.80;99.90
20208;DHT22;10263;48.716;8.760;2022-12-10T21:31:16;-0.90;99.90
20208;DHT22;10263;48.716;8.760;2022-12-10T21:41:06;-0.90;99.90
20208;DHT22;10263;48.716;8.760;2022-12-10T21:43:55;-0.80;99.90
20208;DHT22;10263;48.716;8.760;2022-12-10T21:56:11;-0.70;99.90
20208;DHT22;10263;48.716;8.760;2022-12-10T22:01:07;-0.60;99.90
20208;DHT22;10263;48.716;8.760;2022-12-10T22:03:38;-0.60;99.90
20208;DHT22;10263;48.716;8.760;2022-12-10T22:06:05;-0.60;99.90
20208;DHT22;10263;48.716;8.760;2022-12-10T22:13:27;-0.60;99.90
20208;DHT22;10263;48.716;8.760;2022-12-10T22:18:22;-0.60;99.90
20208;DHT22;10263;48.716;8.760;2022-12-10T22:20:55;-0.50;99.90
20208;DHT22;10263;48.716;8.760;2022-12-10T22:23:23;-0.50;99.90
20208;DHT22;10263;48.716;8.760;2022-12-10T22:33:12;-0.70;99.90
20208;DHT22;10263;48.716;8.760;2022-12-10T22:35:40;-0.70;99.90
20208;DHT22;10263;48.716;8.760;2022-12-10T22:38:08;-0.80;99.90